Time;durP1;ratioP1;P1;durP2;ratioP2;P2;SDS_P1;SDS_P2;PMS_P1;PMS_P2;Temp;Humidity;BMP_temperature;BMP_pressure;BME280_temperature;BME280_humidity;BME280_pressure;Samples;Min_cycle;Max_cycle;Signal;HPM_P1;HPM_P2
2022/10/18 00:01:42;;;;;;;12.63;10.63;;;15.10;99.90;;;;;;6108856;23;20443;-88
2022/10/18 00:04:12;;;;;;;13.40;10.70;;;15.10;99.90;;;;;;6131473;23;20468;-88
2022/10/18 00:06:41;;;;;;;12.23;10.43;;;15.10;99.90;;;;;;6108501;23;20406;-86
2022/10/18 00:09:10;;;;;;;12.70;10.07;;;14.90;99.90;;;;;;6135698;23;20175;-87
2022/10/18 00:11:38;;;;;;;11.60;9.00;;;14.80;99.90;;;;;;6138182;23;20366;-88
2022/10/18 00:14:07;;;;;;;17.92;9.73;;;14.70;99.90;;;;;;6115172;23;20400;-87
2022/10/18 00:16:36;;;;;;;12.07;10.88;;;14.80;99.90;;;;;;6138412;23;20206;-88
2022/10/18 00:19:03;;;;;;;11.23;9.60;;;14.70;99.90;;;;;;6107953;23;20187;-88
2022/10/18 00:21:30;;;;;;;8.75;7.72;;;14.60;99.90;;;;;;6135870;23;20534;-87
2022/10/18 00:23:58;;;;;;;13.48;10.07;;;14.50;99.90;;;;;;6110164;23;20194;-88
2022/10/18 00:26:28;;;;;;;12.77;9.88;;;14.50;99.90;;;;;;6135152;23;20202;-87
2022/10/18 00:29:06;;;;;;;14.20;9.65;;;14.40;99.90;;;;;;6109197;23;20237;-88
2022/10/18 00:31:37;;;;;;;14.70;10.05;;;14.50;99.90;;;;;;6133113;23;20165;-88
2022/10/18 00:34:10;;;;;;;13.37;9.70;;;14.50;99.90;;;;;;6133557;23;20186;-88
2022/10/18 00:36:43;;;;;;;15.15;10.10;;;14.60;99.90;;;;;;6133506;23;20562;-88
2022/10/18 00:39:18;;;;;;;12.00;9.32;;;14.70;99.90;;;;;;6110502;23;20183;-87
2022/10/18 00:41:49;;;;;;;13.57;9.70;;;14.70;99.90;;;;;;6112561;23;20224;-88
2022/10/18 00:44:31;;;;;;;10.73;9.65;;;14.70;99.90;;;;;;6110388;23;20416;-85
2022/10/18 00:47:08;;;;;;;12.55;9.38;;;14.70;99.90;;;;;;6133956;23;20190;-88
2022/10/18 00:49:51;;;;;;;12.07;9.40;;;14.60;99.90;;;;;;6137675;23;20204;-89
2022/10/18 00:52:24;;;;;;;10.85;9.70;;;14.70;99.90;;;;;;6135003;23;20170;-89
2022/10/18 00:54:54;;;;;;;12.77;9.20;;;14.50;99.90;;;;;;6138240;23;20170;-87
2022/10/18 00:57:21;;;;;;;14.00;10.73;;;14.50;99.90;;;;;;6112237;23;20185;-88
2022/10/18 01:00:18;;;;;;;10.02;8.68;;;14.50;99.90;;;;;;6140753;23;20220;-87
2022/10/18 01:02:47;;;;;;;13.95;9.82;;;14.50;99.90;;;;;;6112911;23;20227;-87
2022/10/18 01:05:19;;;;;;;11.98;9.82;;;14.50;99.90;;;;;;6113916;23;20163;-84
2022/10/18 01:08:13;;;;;;;10.45;9.40;;;14.50;99.90;;;;;;6137852;23;20515;-86
2022/10/18 01:11:10;;;;;;;11.68;9.75;;;14.40;99.90;;;;;;6136764;23;20193;-86
2022/10/18 01:13:50;;;;;;;10.23;8.90;;;14.30;99.90;;;;;;6108647;23;20363;-86
2022/10/18 01:16:47;;;;;;;10.18;9.05;;;14.20;99.90;;;;;;6134330;23;20187;-85
2022/10/18 01:20:03;;;;;;;11.00;9.70;;;14.30;99.90;;;;;;6134827;23;20174;-85
2022/10/18 01:22:46;;;;;;;11.77;10.25;;;14.30;99.90;;;;;;6110325;23;20190;-86
2022/10/18 01:26:06;;;;;;;10.82;9.73;;;14.20;99.90;;;;;;6133978;23;20196;-89
2022/10/18 01:28:48;;;;;;;14.45;10.15;;;14.00;99.90;;;;;;6130278;23;20217;-90
2022/10/18 01:31:22;;;;;;;13.55;10.50;;;13.90;99.90;;;;;;6131738;23;20187;-90
2022/10/18 01:33:59;;;;;;;13.85;8.98;;;13.80;99.90;;;;;;6132415;23;20266;-90
2022/10/18 01:36:42;;;;;;;11.82;9.65;;;13.80;99.90;;;;;;6111581;23;20475;-88
2022/10/18 01:39:16;;;;;;;9.50;8.55;;;13.80;99.90;;;;;;6106848;23;20224;-89
2022/10/18 01:41:48;;;;;;;11.50;9.30;;;14.00;99.90;;;;;;6129391;23;20198;-88
2022/10/18 01:44:33;;;;;;;10.65;9.35;;;14.00;99.90;;;;;;5129414;27;20575;-88
2022/10/18 01:47:00;;;;;;;11.13;10.00;;;14.00;99.90;;;;;;5094992;28;20204;-88
2022/10/18 01:49:27;;;;;;;9.40;8.50;;;14.10;99.90;;;;;;5092010;28;20207;-89
2022/10/18 01:51:56;;;;;;;10.25;8.88;;;14.10;99.90;;;;;;5097735;28;20274;-88
2022/10/18 01:54:30;;;;;;;13.27;10.10;;;14.00;99.90;;;;;;5089636;28;20237;-88
2022/10/18 01:57:30;;;;;;;13.45;8.82;;;14.10;99.90;;;;;;5097632;28;20209;-88
2022/10/18 02:00:12;;;;;;;13.10;9.05;;;14.20;99.90;;;;;;5091836;28;20195;-88
2022/10/18 02:03:05;;;;;;;10.80;9.27;;;14.30;99.90;;;;;;5098513;28;20223;-88
2022/10/18 02:05:56;;;;;;;9.70;8.77;;;14.20;99.90;;;;;;5099165;28;20252;-88
2022/10/18 02:08:33;;;;;;;12.25;10.02;;;14.20;99.90;;;;;;5085831;28;20215;-86
2022/10/18 02:11:04;;;;;;;11.80;9.80;;;14.20;99.90;;;;;;5093423;28;20190;-89
2022/10/18 02:13:51;;;;;;;10.13;8.50;;;14.10;99.90;;;;;;5100560;28;20238;-89
2022/10/18 02:16:39;;;;;;;14.07;10.13;;;14.10;99.90;;;;;;5090313;28;20215;-89
2022/10/18 02:19:14;;;;;;;9.55;8.65;;;14.10;99.90;;;;;;5099900;28;20207;-89
2022/10/18 02:21:49;;;;;;;12.18;9.95;;;14.10;99.90;;;;;;5090416;28;20226;-89
2022/10/18 02:24:18;;;;;;;10.93;9.57;;;14.10;99.90;;;;;;5098539;28;20249;-89
2022/10/18 02:26:45;;;;;;;11.05;9.50;;;14.20;99.90;;;;;;5127484;28;20199;-89
2022/10/18 02:29:13;;;;;;;12.30;8.30;;;14.10;99.90;;;;;;5098888;28;20213;-89
2022/10/18 02:31:47;;;;;;;12.10;9.57;;;14.00;99.90;;;;;;5097623;28;20207;-88
2022/10/18 02:34:34;;;;;;;13.13;9.68;;;14.00;99.90;;;;;;5097364;28;20274;-89
2022/10/18 02:37:03;;;;;;;13.20;9.77;;;14.00;99.90;;;;;;5096929;28;20445;-88
2022/10/18 02:39:38;;;;;;;11.82;8.93;;;13.90;99.90;;;;;;5096038;28;20223;-88
2022/10/18 02:42:09;;;;;;;10.10;9.20;;;13.90;99.90;;;;;;5098799;28;20236;-88
2022/10/18 02:44:37;;;;;;;11.27;8.95;;;13.90;99.90;;;;;;5096425;28;20227;-87
2022/10/18 02:47:07;;;;;;;11.70;9.50;;;13.90;99.90;;;;;;5098854;28;20203;-88
2022/10/18 02:49:35;;;;;;;11.35;10.15;;;13.80;99.90;;;;;;5100426;28;20202;-89
2022/10/18 02:52:05;;;;;;;10.63;9.27;;;13.90;99.90;;;;;;5101129;28;20474;-86
2022/10/18 02:54:33;;;;;;;10.82;9.65;;;13.90;99.90;;;;;;5097962;28;20203;-88
2022/10/18 02:57:02;;;;;;;11.48;9.40;;;13.90;99.90;;;;;;5086898;28;20199;-88
2022/10/18 02:59:30;;;;;;;11.85;10.65;;;13.80;99.90;;;;;;5099924;28;20188;-88
2022/10/18 03:01:57;;;;;;;13.25;9.13;;;13.90;99.90;;;;;;5093866;28;20279;-89
2022/10/18 03:04:25;;;;;;;10.85;8.55;;;13.90;99.90;;;;;;5085988;28;20219;-88
2022/10/18 03:06:56;;;;;;;10.10;8.88;;;14.00;99.90;;;;;;5083502;28;20200;-86
2022/10/18 03:09:25;;;;;;;14.90;8.75;;;14.10;99.90;;;;;;5063398;28;20208;-89
2022/10/18 03:11:58;;;;;;;14.10;9.82;;;14.10;99.90;;;;;;5084450;28;20237;-89
2022/10/18 03:14:25;;;;;;;9.55;8.55;;;14.20;99.90;;;;;;5087382;28;20209;-87
2022/10/18 03:16:53;;;;;;;12.38;10.18;;;14.00;99.90;;;;;;5088521;28;20195;-89
2022/10/18 03:19:20;;;;;;;12.75;9.27;;;13.90;99.90;;;;;;5088659;28;20356;-90
2022/10/18 03:21:47;;;;;;;12.23;10.18;;;14.00;99.90;;;;;;5097526;28;20200;-88
2022/10/18 03:24:14;;;;;;;12.02;10.73;;;13.90;99.90;;;;;;5080818;28;20265;-86
2022/10/18 03:26:41;;;;;;;12.10;9.63;;;14.00;99.90;;;;;;5083107;28;20219;-88
2022/10/18 03:29:09;;;;;;;15.00;11.07;;;14.10;99.90;;;;;;5084449;28;20383;-87
2022/10/18 03:31:40;;;;;;;11.90;9.98;;;13.90;99.90;;;;;;5084111;28;20271;-86
2022/10/18 03:34:10;;;;;;;12.30;10.60;;;13.90;99.90;;;;;;5082931;28;20203;-87
2022/10/18 03:36:40;;;;;;;16.38;11.50;;;13.90;99.90;;;;;;5075723;28;20212;-89
2022/10/18 03:39:10;;;;;;;15.40;10.40;;;13.90;99.90;;;;;;5084573;28;20195;-87
2022/10/18 03:41:38;;;;;;;8.98;8.18;;;14.10;99.90;;;;;;5086806;28;20208;-89
2022/10/18 03:44:06;;;;;;;18.20;10.20;;;13.90;99.90;;;;;;5089133;28;20398;-88
2022/10/18 03:46:39;;;;;;;13.32;10.40;;;13.90;99.90;;;;;;5090393;28;20196;-89
2022/10/18 03:49:06;;;;;;;13.50;9.75;;;13.90;99.90;;;;;;5092319;28;20247;-88
2022/10/18 03:51:33;;;;;;;11.15;10.15;;;13.90;99.90;;;;;;5077426;28;20193;-90
2022/10/18 03:54:02;;;;;;;15.40;9.63;;;13.90;99.90;;;;;;5085868;28;20202;-88
2022/10/18 03:56:30;;;;;;;9.77;8.45;;;13.90;99.90;;;;;;5084006;28;20219;-90
2022/10/18 03:59:03;;;;;;;9.80;8.80;;;13.90;99.90;;;;;;5078416;28;20204;-89
2022/10/18 04:01:30;;;;;;;11.48;8.82;;;13.90;99.90;;;;;;5088296;28;20237;-85
2022/10/18 04:03:59;;;;;;;10.57;9.40;;;14.10;99.90;;;;;;5121589;28;20392;-86
2022/10/18 04:06:27;;;;;;;11.35;10.25;;;13.90;99.90;;;;;;5085083;28;20215;-88
2022/10/18 04:08:59;;;;;;;11.85;9.40;;;13.80;99.90;;;;;;5087233;28;20249;-89
2022/10/18 04:11:38;;;;;;;11.90;10.43;;;13.80;99.90;;;;;;5090980;28;20234;-88
2022/10/18 04:14:13;;;;;;;19.95;12.75;;;13.60;99.90;;;;;;5089623;28;20237;-88
2022/10/18 04:16:48;;;;;;;19.92;12.30;;;13.60;99.90;;;;;;5071680;28;20188;-88
2022/10/18 04:19:20;;;;;;;18.15;11.20;;;13.60;99.90;;;;;;5090953;28;20259;-88
2022/10/18 04:21:51;;;;;;;13.88;10.88;;;13.50;99.90;;;;;;5083494;28;20238;-89
2022/10/18 04:24:19;;;;;;;11.73;10.52;;;13.50;99.90;;;;;;5084549;28;20219;-88
2022/10/18 04:26:46;;;;;;;17.42;9.32;;;13.50;99.90;;;;;;5084330;28;20253;-87
2022/10/18 04:29:13;;;;;;;11.95;10.73;;;13.60;99.90;;;;;;5080337;28;20218;-88
2022/10/18 04:31:41;;;;;;;17.83;11.43;;;13.60;99.90;;;;;;5079222;28;20268;-87
2022/10/18 04:34:09;;;;;;;16.40;11.10;;;13.50;99.90;;;;;;5074335;28;20242;-86
2022/10/18 04:36:36;;;;;;;21.92;11.73;;;13.60;99.90;;;;;;5076284;28;20196;-86
2022/10/18 04:39:05;;;;;;;16.20;11.15;;;13.50;99.90;;;;;;5081342;28;20266;-87
2022/10/18 04:41:39;;;;;;;16.27;11.85;;;13.50;99.90;;;;;;5077280;28;20208;-86
2022/10/18 04:44:09;;;;;;;14.55;11.50;;;13.50;99.90;;;;;;5082933;28;20223;-86
2022/10/18 04:46:39;;;;;;;11.60;10.38;;;13.40;99.90;;;;;;5082534;28;20206;-87
2022/10/18 04:49:12;;;;;;;16.15;12.15;;;13.40;99.90;;;;;;5083193;28;20403;-87
2022/10/18 04:51:46;;;;;;;15.93;11.80;;;13.50;99.90;;;;;;5083997;28;20222;-86
2022/10/18 04:54:19;;;;;;;20.83;12.30;;;13.50;99.90;;;;;;5077802;28;20237;-87
2022/10/18 04:56:53;;;;;;;14.00;11.55;;;13.50;99.90;;;;;;5081083;28;20453;-87
2022/10/18 04:59:25;;;;;;;13.07;11.57;;;13.50;99.90;;;;;;5078486;28;20226;-87
2022/10/18 05:02:00;;;;;;;10.90;9.90;;;13.50;99.90;;;;;;5081440;28;20207;-86
2022/10/18 05:04:30;;;;;;;16.75;11.93;;;13.40;99.90;;;;;;5081642;28;20252;-88
2022/10/18 05:06:59;;;;;;;17.25;11.52;;;13.40;99.90;;;;;;5077725;28;20511;-88
2022/10/18 05:09:36;;;;;;;13.85;11.30;;;13.20;99.90;;;;;;5083481;28;20240;-88
2022/10/18 05:12:07;;;;;;;12.68;11.38;;;13.30;99.90;;;;;;5084142;28;20203;-87
2022/10/18 05:14:37;;;;;;;17.17;12.90;;;13.20;99.90;;;;;;5082264;28;20207;-88
2022/10/18 05:17:08;;;;;;;15.25;12.43;;;13.10;99.90;;;;;;5082844;28;20207;-88
2022/10/18 05:19:35;;;;;;;20.90;12.38;;;13.20;99.90;;;;;;5082359;28;20257;-89
2022/10/18 05:22:02;;;;;;;16.38;12.77;;;13.30;99.90;;;;;;5083645;28;20237;-89
2022/10/18 05:24:30;;;;;;;14.55;13.07;;;13.30;99.90;;;;;;5083844;28;20238;-88
2022/10/18 05:27:00;;;;;;;35.85;16.85;;;13.30;99.90;;;;;;5082660;28;20264;-87
2022/10/18 05:29:29;;;;;;;23.42;15.23;;;13.40;99.90;;;;;;5067980;28;20187;-87
2022/10/18 05:31:59;;;;;;;17.50;13.18;;;13.40;99.90;;;;;;5083957;28;20195;-88
2022/10/18 05:34:30;;;;;;;16.55;11.57;;;13.50;99.90;;;;;;5075174;28;20208;-89
2022/10/18 05:37:00;;;;;;;24.65;14.35;;;13.40;99.90;;;;;;5079059;28;20274;-87
2022/10/18 05:39:31;;;;;;;13.90;11.88;;;13.30;99.90;;;;;;5082639;28;20789;-88
2022/10/18 05:42:01;;;;;;;14.38;12.80;;;13.30;99.90;;;;;;5083510;28;20222;-89
2022/10/18 05:44:31;;;;;;;18.45;12.80;;;13.30;99.90;;;;;;5078082;28;20296;-85
2022/10/18 05:46:59;;;;;;;19.35;12.77;;;13.40;99.90;;;;;;5064018;28;20212;-87
2022/10/18 05:49:29;;;;;;;19.98;12.70;;;13.50;99.90;;;;;;5079489;28;20242;-86
2022/10/18 05:51:56;;;;;;;14.57;11.57;;;13.50;99.90;;;;;;5082302;28;20199;-88
2022/10/18 05:54:24;;;;;;;19.73;13.23;;;13.60;99.90;;;;;;5078105;28;20208;-88
2022/10/18 05:57:00;;;;;;;15.70;13.57;;;13.70;99.90;;;;;;5082550;28;20289;-88
2022/10/18 05:59:32;;;;;;;19.20;13.75;;;13.80;99.90;;;;;;5079230;28;20208;-89
2022/10/18 06:02:04;;;;;;;17.73;12.77;;;13.90;99.90;;;;;;5075974;28;20526;-88
2022/10/18 06:04:43;;;;;;;19.58;14.35;;;14.10;99.90;;;;;;5081097;28;20311;-89
2022/10/18 06:07:16;;;;;;;26.73;13.00;;;14.20;99.90;;;;;;5084685;28;20187;-88
2022/10/18 06:09:43;;;;;;;19.67;14.65;;;14.30;99.90;;;;;;5079668;28;20266;-87
2022/10/18 06:12:10;;;;;;;27.95;13.85;;;14.40;99.90;;;;;;5084655;28;20212;-87
2022/10/18 06:14:39;;;;;;;15.18;12.60;;;14.60;99.90;;;;;;5084991;28;20223;-87
2022/10/18 06:17:09;;;;;;;17.10;12.65;;;14.70;99.90;;;;;;5085242;28;20517;-87
2022/10/18 06:19:44;;;;;;;13.80;10.88;;;14.90;99.90;;;;;;5085637;28;20203;-87
2022/10/18 06:22:13;;;;;;;17.38;12.27;;;15.10;99.90;;;;;;5088583;28;20212;-89
2022/10/18 06:24:49;;;;;;;13.30;11.27;;;15.30;99.90;;;;;;5103590;28;20288;-87
2022/10/18 06:27:34;;;;;;;19.43;11.33;;;15.50;99.90;;;;;;5089914;28;20446;-87
2022/10/18 06:30:07;;;;;;;20.23;12.77;;;15.70;99.90;;;;;;5093504;28;20439;-89
2022/10/18 06:32:48;;;;;;;15.03;11.77;;;15.80;99.90;;;;;;5097113;28;20739;-88
2022/10/18 06:35:31;;;;;;;15.90;11.30;;;15.80;99.90;;;;;;5096556;28;20447;-88
2022/10/18 06:38:11;;;;;;;13.48;11.57;;;15.80;99.90;;;;;;5100635;28;20443;-88
2022/10/18 06:40:40;;;;;;;14.67;11.23;;;15.90;99.90;;;;;;5082497;28;20188;-90
2022/10/18 06:43:09;;;;;;;14.83;12.40;;;15.80;99.90;;;;;;5097118;28;20436;-89
2022/10/18 06:45:47;;;;;;;14.83;12.03;;;15.70;99.90;;;;;;5094285;28;20448;-89
2022/10/18 06:48:18;;;;;;;17.97;12.60;;;15.70;99.90;;;;;;5089537;28;20530;-87
2022/10/18 06:50:53;;;;;;;18.13;12.17;;;15.60;99.90;;;;;;5089690;28;20456;-87
2022/10/18 06:53:26;;;;;;;14.17;11.33;;;15.50;99.90;;;;;;5088160;28;20839;-88
2022/10/18 06:56:05;;;;;;;12.20;10.83;;;15.60;99.90;;;;;;5084035;28;20451;-87
2022/10/18 06:58:34;;;;;;;13.27;11.67;;;15.50;99.90;;;;;;5088488;28;20428;-88
2022/10/18 07:01:14;;;;;;;14.83;10.43;;;15.80;99.90;;;;;;5086338;28;20444;-87
2022/10/18 07:03:43;;;;;;;17.80;12.00;;;15.80;99.90;;;;;;5087123;28;20630;-88
2022/10/18 07:06:13;;;;;;;20.00;11.43;;;16.00;99.90;;;;;;5088078;28;20444;-86
2022/10/18 07:08:40;;;;;;;15.37;12.67;;;16.10;99.90;;;;;;5088235;28;20424;-86
2022/10/18 07:11:17;;;;;;;16.23;12.70;;;16.50;99.90;;;;;;5097742;28;20431;-86
2022/10/18 07:13:48;;;;;;;12.63;9.30;;;16.80;99.90;;;;;;5077564;28;20444;-86
2022/10/18 07:16:20;;;;;;;15.47;10.87;;;17.10;99.90;;;;;;5086528;28;20712;-85
2022/10/18 07:18:50;;;;;;;13.95;11.45;;;17.40;99.90;;;;;;5087189;28;20447;-85
2022/10/18 07:21:22;;;;;;;13.40;10.77;;;17.50;99.90;;;;;;5086087;28;20512;-86
2022/10/18 07:23:50;;;;;;;18.63;10.20;;;17.90;99.90;;;;;;5067417;28;20457;-86
2022/10/18 07:26:23;;;;;;;16.43;10.47;;;18.10;99.90;;;;;;5075702;28;20436;-86
2022/10/18 07:29:04;;;;;;;12.40;10.60;;;18.70;99.90;;;;;;5087435;28;20420;-85
2022/10/18 07:31:35;;;;;;;18.73;10.60;;;19.60;99.90;;;;;;5086604;28;20439;-87
2022/10/18 07:34:04;;;;;;;14.77;10.10;;;20.00;99.90;;;;;;5089146;28;20465;-85
2022/10/18 07:36:33;;;;;;;14.30;9.90;;;20.20;99.90;;;;;;5086651;28;20419;-86
2022/10/18 07:39:20;;;;;;;20.23;9.73;;;20.60;99.90;;;;;;5085612;28;20396;-86
2022/10/18 07:41:51;;;;;;;10.60;9.50;;;21.40;99.90;;;;;;5067443;28;20412;-86
2022/10/18 07:44:20;;;;;;;13.60;9.90;;;22.30;99.90;;;;;;5082056;28;20827;-86
2022/10/18 07:46:49;;;;;;;11.03;9.03;;;22.90;99.90;;;;;;5085944;28;20780;-86
2022/10/18 07:49:19;;;;;;;15.00;10.20;;;23.30;99.90;;;;;;5084261;28;20439;-85
2022/10/18 07:51:48;;;;;;;15.33;9.43;;;23.60;99.90;;;;;;5086886;28;20414;-85
2022/10/18 07:54:17;;;;;;;14.73;9.80;;;24.10;99.90;;;;;;5084587;28;20613;-84
2022/10/18 07:56:44;;;;;;;16.67;9.37;;;24.60;99.90;;;;;;5082423;28;20690;-85
2022/10/18 07:59:13;;;;;;;11.30;9.37;;;25.00;99.90;;;;;;5078693;28;20558;-87
2022/10/18 08:01:41;;;;;;;10.73;9.60;;;25.20;99.90;;;;;;5076770;28;20411;-85
2022/10/18 08:04:10;;;;;;;13.37;9.40;;;25.20;99.90;;;;;;5083958;28;20472;-85
2022/10/18 08:06:42;;;;;;;10.27;9.17;;;25.70;99.90;;;;;;5077741;28;20414;-85
2022/10/18 08:09:09;;;;;;;15.57;9.90;;;25.60;99.90;;;;;;5085433;28;20426;-85
2022/10/18 08:11:37;;;;;;;11.53;8.50;;;26.00;99.90;;;;;;5083394;28;20425;-86
2022/10/18 08:14:07;;;;;;;10.60;8.27;;;25.80;99.90;;;;;;5084286;28;20418;-85
2022/10/18 08:16:36;;;;;;;13.87;7.83;;;26.50;99.90;;;;;;5056582;28;20479;-85
2022/10/18 08:19:03;;;;;;;13.13;8.13;;;26.80;99.90;;;;;;5063792;28;20445;-85
2022/10/18 08:21:32;;;;;;;14.17;8.50;;;27.50;99.90;;;;;;5081913;28;20715;-85
2022/10/18 08:23:59;;;;;;;10.63;8.37;;;27.40;99.90;;;;;;5081243;28;20495;-85
2022/10/18 08:26:27;;;;;;;14.37;8.80;;;28.00;99.90;;;;;;5080871;28;20487;-86
2022/10/18 08:28:58;;;;;;;10.80;8.90;;;28.50;99.90;;;;;;5080687;28;20437;-85
2022/10/18 08:31:50;;;;;;;10.50;8.73;;;28.70;99.90;;;;;;5082452;28;20445;-84
2022/10/18 08:34:20;;;;;;;9.90;8.90;;;28.20;99.90;;;;;;5080781;28;20462;-85
2022/10/18 08:36:48;;;;;;;10.80;8.53;;;28.20;99.90;;;;;;5081402;28;20448;-84
2022/10/18 08:39:20;;;;;;;8.37;7.30;;;28.10;99.90;;;;;;5082435;28;20433;-85
2022/10/18 08:42:14;;;;;;;16.93;9.43;;;28.30;99.90;;;;;;5083529;28;20555;-84
2022/10/18 08:44:50;;;;;;;8.53;7.67;;;27.90;99.90;;;;;;5087793;28;20447;-86
2022/10/18 08:47:21;;;;;;;10.33;8.57;;;27.30;99.90;;;;;;5075822;28;20433;-85
2022/10/18 08:49:56;;;;;;;10.00;8.37;;;27.00;99.90;;;;;;5086433;28;20425;-84
2022/10/18 08:52:49;;;;;;;12.10;8.70;;;26.90;99.90;;;;;;5116779;28;20439;-84
2022/10/18 08:55:35;;;;;;;10.77;8.63;;;27.30;99.90;;;;;;5080346;28;20749;-84
2022/10/18 08:58:11;;;;;;;8.70;7.80;;;27.80;99.90;;;;;;5081274;28;20479;-84
2022/10/18 09:00:46;;;;;;;7.07;6.37;;;27.90;99.90;;;;;;5112765;28;20436;-83
2022/10/18 09:03:52;;;;;;;9.20;8.40;;;27.10;99.90;;;;;;5079742;28;20457;-84
2022/10/18 09:07:00;;;;;;;8.67;7.77;;;26.00;99.90;;;;;;5080296;28;20402;-83
2022/10/18 09:09:35;;;;;;;17.33;9.03;;;25.50;99.90;;;;;;5073297;28;20444;-83
2022/10/18 09:12:21;;;;;;;10.00;8.10;;;24.40;99.90;;;;;;5076797;28;20406;-83
2022/10/18 09:15:22;;;;;;;10.67;7.90;;;23.90;99.90;;;;;;5075907;28;20715;-84
2022/10/18 09:18:11;;;;;;;9.70;8.67;;;23.80;99.90;;;;;;5088436;28;20410;-82
2022/10/18 09:20:59;;;;;;;9.67;8.53;;;23.70;99.90;;;;;;5069930;28;20415;-83
2022/10/18 09:23:34;;;;;;;9.70;8.80;;;23.50;99.90;;;;;;5103323;28;20496;-83
2022/10/18 09:26:14;;;;;;;9.70;8.70;;;23.60;99.90;;;;;;5076136;28;20447;-83
2022/10/18 09:29:17;;;;;;;10.63;9.53;;;23.90;99.90;;;;;;5078659;28;20429;-83
2022/10/18 09:32:06;;;;;;;9.43;8.20;;;23.70;99.90;;;;;;5079743;28;20439;-83
2022/10/18 09:34:47;;;;;;;12.70;8.80;;;23.40;99.90;;;;;;5077871;28;20438;-84
2022/10/18 09:37:18;;;;;;;10.67;9.60;;;23.40;99.90;;;;;;5075871;28;20419;-84
2022/10/18 09:39:48;;;;;;;12.67;8.80;;;23.40;99.90;;;;;;5077487;28;20407;-85
2022/10/18 09:42:27;;;;;;;11.37;8.33;;;23.10;99.90;;;;;;5071279;28;20423;-85
2022/10/18 09:45:23;;;;;;;9.00;8.10;;;22.90;99.90;;;;;;5075380;28;20509;-84
2022/10/18 09:48:13;;;;;;;11.87;8.83;;;23.00;99.90;;;;;;5077200;28;20464;-84
2022/10/18 09:51:01;;;;;;;10.33;8.53;;;23.10;99.90;;;;;;5079154;28;20403;-83
2022/10/18 09:54:06;;;;;;;10.43;8.70;;;23.50;99.90;;;;;;5082685;28;20459;-82
2022/10/18 09:56:57;;;;;;;11.83;8.73;;;23.40;99.90;;;;;;5078308;28;20457;-83
2022/10/18 09:59:35;;;;;;;11.70;10.50;;;23.60;99.90;;;;;;5077129;28;20415;-83
2022/10/18 10:02:04;;;;;;;9.60;8.60;;;23.70;99.90;;;;;;5077921;28;20418;-83
2022/10/18 10:04:31;;;;;;;10.57;8.70;;;23.60;99.90;;;;;;5081061;28;20512;-82
2022/10/18 10:07:05;;;;;;;11.33;9.03;;;23.60;99.90;;;;;;5081036;28;20415;-83
2022/10/18 10:09:45;;;;;;;11.23;10.03;;;23.70;99.90;;;;;;5093637;28;20444;-82
2022/10/18 10:12:29;;;;;;;10.70;8.90;;;23.70;99.90;;;;;;5093724;28;20406;-85
2022/10/18 10:15:17;;;;;;;9.73;8.83;;;23.70;99.90;;;;;;5077589;28;20407;-83
2022/10/18 10:18:01;;;;;;;9.77;8.87;;;24.00;99.90;;;;;;5077829;28;20741;-84
2022/10/18 10:20:44;;;;;;;10.93;9.73;;;23.90;99.90;;;;;;5081534;28;20418;-85
2022/10/18 10:23:25;;;;;;;11.67;9.57;;;23.90;99.90;;;;;;5082688;28;20683;-83
2022/10/18 10:25:55;;;;;;;12.53;9.93;;;24.20;99.90;;;;;;5082875;28;20471;-83
2022/10/18 10:28:28;;;;;;;15.70;10.27;;;24.20;99.90;;;;;;5082752;28;20422;-85
2022/10/18 10:31:21;;;;;;;12.87;9.53;;;24.20;99.90;;;;;;5082917;28;20486;-84
2022/10/18 10:34:16;;;;;;;9.10;8.20;;;24.40;99.90;;;;;;5074951;28;20414;-84
2022/10/18 10:36:49;;;;;;;9.80;8.80;;;24.40;99.90;;;;;;5083645;28;20418;-83
2022/10/18 10:39:18;;;;;;;9.70;8.70;;;24.30;99.90;;;;;;5071893;28;20490;-85
2022/10/18 10:41:59;;;;;;;13.30;9.10;;;24.50;99.90;;;;;;5099798;28;20501;-86
2022/10/18 10:44:30;;;;;;;9.83;8.80;;;24.60;99.90;;;;;;5082635;28;20438;-83
2022/10/18 10:46:58;;;;;;;10.97;8.63;;;24.80;99.90;;;;;;5082189;28;20678;-85
2022/10/18 10:49:44;;;;;;;8.93;8.03;;;24.80;99.90;;;;;;5074569;28;20734;-85
2022/10/18 10:52:21;;;;;;;11.13;10.03;;;24.70;99.90;;;;;;5074581;28;20526;-85
2022/10/18 10:54:56;;;;;;;15.47;9.60;;;24.30;99.90;;;;;;5058678;28;20562;-84
2022/10/18 10:57:46;;;;;;;14.87;10.10;;;24.60;99.90;;;;;;5082422;28;20415;-84
2022/10/18 11:00:37;;;;;;;11.70;9.40;;;24.50;99.90;;;;;;5086510;28;20440;-84
2022/10/18 11:03:25;;;;;;;12.00;9.53;;;24.20;99.90;;;;;;5079664;28;20423;-83
2022/10/18 11:05:59;;;;;;;10.87;9.77;;;24.20;99.90;;;;;;5070951;28;20480;-84
2022/10/18 11:08:37;;;;;;;13.23;9.80;;;24.20;99.90;;;;;;5082616;28;20467;-84
2022/10/18 11:11:19;;;;;;;10.17;9.27;;;23.90;99.90;;;;;;5072052;28;20636;-84
2022/10/18 11:14:03;;;;;;;11.77;9.27;;;23.90;99.90;;;;;;5081392;28;20406;-84
2022/10/18 11:17:11;;;;;;;12.37;9.60;;;24.00;99.90;;;;;;5082131;28;20435;-85
2022/10/18 11:19:54;;;;;;;9.80;8.77;;;24.00;99.90;;;;;;5073353;28;20436;-84
2022/10/18 11:22:27;;;;;;;10.53;9.53;;;23.70;99.90;;;;;;5078139;28;20454;-85
2022/10/18 11:24:56;;;;;;;13.53;10.60;;;23.70;99.90;;;;;;5082340;28;20464;-85
2022/10/18 11:27:41;;;;;;;11.70;9.67;;;23.70;99.90;;;;;;5077321;28;20419;-84
2022/10/18 11:30:37;;;;;;;11.43;10.33;;;23.90;99.90;;;;;;5080597;28;20760;-84
2022/10/18 11:33:23;;;;;;;11.60;9.50;;;24.00;99.90;;;;;;5070158;28;20556;-85
2022/10/18 11:36:19;;;;;;;12.93;9.20;;;24.10;99.90;;;;;;5069695;28;20435;-83
2022/10/18 11:38:59;;;;;;;15.07;10.00;;;23.70;99.90;;;;;;5061293;28;20424;-84
2022/10/18 11:41:57;;;;;;;12.90;9.47;;;23.70;99.90;;;;;;5069333;28;20496;-84
2022/10/18 11:44:40;;;;;;;13.07;8.63;;;23.80;99.90;;;;;;5072962;28;20447;-83
2022/10/18 11:47:24;;;;;;;10.17;9.17;;;23.80;99.90;;;;;;5081237;28;20403;-84
2022/10/18 11:49:59;;;;;;;13.17;9.10;;;23.90;99.90;;;;;;5066649;28;20631;-84
2022/10/18 11:52:56;;;;;;;10.23;9.20;;;23.60;99.90;;;;;;5084793;28;20472;-83
2022/10/18 11:55:35;;;;;;;9.27;7.70;;;23.40;99.90;;;;;;5077134;28;20436;-84
2022/10/18 11:58:24;;;;;;;9.00;8.10;;;23.30;99.90;;;;;;5080197;28;20454;-84
2022/10/18 12:01:04;;;;;;;11.30;8.60;;;23.40;99.90;;;;;;5075652;28;20482;-84
2022/10/18 12:03:53;;;;;;;15.73;9.20;;;23.50;99.90;;;;;;5080746;28;20452;-86
2022/10/18 12:06:25;;;;;;;16.17;9.17;;;23.50;99.90;;;;;;5077603;28;20462;-84
2022/10/18 12:08:58;;;;;;;9.43;8.63;;;23.50;99.90;;;;;;5061386;28;20458;-84
2022/10/18 12:11:37;;;;;;;9.27;7.87;;;23.50;99.90;;;;;;5075403;28;20419;-83
2022/10/18 12:14:36;;;;;;;11.23;8.80;;;23.70;99.90;;;;;;5077483;28;20387;-86
2022/10/18 12:17:39;;;;;;;12.20;11.00;;;23.70;99.90;;;;;;5110569;28;20549;-85
2022/10/18 12:20:51;;;;;;;9.33;8.13;;;23.60;99.90;;;;;;5076829;28;20650;-84
2022/10/18 12:23:28;;;;;;;11.73;9.50;;;23.40;99.90;;;;;;5082032;28;20407;-85
2022/10/18 12:26:03;;;;;;;11.93;9.40;;;23.10;99.90;;;;;;5073619;28;20480;-84
2022/10/18 12:29:01;;;;;;;10.93;9.83;;;23.00;99.90;;;;;;5080972;28;20482;-84
2022/10/18 12:31:56;;;;;;;13.33;9.30;;;23.30;99.90;;;;;;5078097;28;20419;-84
2022/10/18 12:34:48;;;;;;;10.00;8.67;;;23.60;99.90;;;;;;5061794;28;20434;-84
2022/10/18 12:37:26;;;;;;;12.80;9.60;;;23.60;99.90;;;;;;5075856;28;20419;-86
2022/10/18 12:40:13;;;;;;;10.60;8.93;;;23.70;99.90;;;;;;5080283;28;20414;-86
2022/10/18 12:42:49;;;;;;;10.43;9.23;;;23.70;99.90;;;;;;5082980;28;20434;-85
2022/10/18 12:45:26;;;;;;;10.97;9.87;;;23.80;99.90;;;;;;5088685;28;20502;-86
2022/10/18 12:48:03;;;;;;;13.60;8.63;;;23.80;99.90;;;;;;5092470;28;20486;-86
2022/10/18 12:50:39;;;;;;;9.23;8.30;;;23.60;99.90;;;;;;5072056;28;20429;-86
2022/10/18 12:53:17;;;;;;;10.00;8.80;;;23.40;99.90;;;;;;5061306;28;20854;-85
2022/10/18 12:55:50;;;;;;;10.97;9.60;;;23.20;99.90;;;;;;5071791;28;20483;-85
2022/10/18 12:58:41;;;;;;;14.50;8.50;;;23.10;99.90;;;;;;5069552;28;20426;-86
2022/10/18 13:01:14;;;;;;;14.90;9.67;;;23.20;99.90;;;;;;5086939;28;20441;-87
2022/10/18 13:03:54;;;;;;;12.23;8.90;;;23.40;99.90;;;;;;5085507;28;20447;-86
2022/10/18 13:06:22;;;;;;;9.30;8.43;;;23.70;99.90;;;;;;5085034;28;20496;-87
2022/10/18 13:09:20;;;;;;;10.50;9.07;;;23.90;99.90;;;;;;5082982;28;20448;-86
2022/10/18 13:11:49;;;;;;;14.40;11.60;;;24.10;99.90;;;;;;5082466;28;20581;-86
2022/10/18 13:15:02;;;;;;;10.20;8.10;;;24.10;99.90;;;;;;5083790;28;20480;-86
2022/10/18 13:18:13;;;;;;;13.83;9.27;;;24.10;99.90;;;;;;5068921;28;20416;-86
2022/10/18 13:20:55;;;;;;;17.13;9.33;;;23.90;99.90;;;;;;5080185;28;20432;-86